sensor_id;sensor_type;location;lat;lon;timestamp;P1;durP1;ratioP1;P2;durP2;ratioP2
23310;SDS011;11828;51.508;18.118;2022-11-24T00:00:50;50.15;;;22.70;;
23310;SDS011;11828;51.508;18.118;2022-11-24T00:03:25;48.00;;;21.05;;
23310;SDS011;11828;51.508;18.118;2022-11-24T00:05:51;50.40;;;22.00;;
23310;SDS011;11828;51.508;18.118;2022-11-24T00:08:17;50.17;;;21.13;;
23310;SDS011;11828;51.508;18.118;2022-11-24T00:10:44;48.60;;;22.33;;
23310;SDS011;11828;51.508;18.118;2022-11-24T00:13:10;46.63;;;21.85;;
23310;SDS011;11828;51.508;18.118;2022-11-24T00:15:36;48.90;;;22.42;;
23310;SDS011;11828;51.508;18.118;2022-11-24T00:18:02;52.03;;;23.90;;
23310;SDS011;11828;51.508;18.118;2022-11-24T00:20:28;49.60;;;22.45;;
23310;SDS011;11828;51.508;18.118;2022-11-24T00:22:54;54.53;;;23.08;;
23310;SDS011;11828;51.508;18.118;2022-11-24T00:25:20;50.67;;;23.17;;
23310;SDS011;11828;51.508;18.118;2022-11-24T00:27:46;48.42;;;22.92;;
23310;SDS011;11828;51.508;18.118;2022-11-24T00:30:12;50.63;;;24.25;;
23310;SDS011;11828;51.508;18.118;2022-11-24T00:32:38;49.70;;;23.00;;
23310;SDS011;11828;51.508;18.118;2022-11-24T00:35:04;50.10;;;23.75;;
23310;SDS011;11828;51.508;18.118;2022-11-24T00:37:31;52.25;;;23.05;;
23310;SDS011;11828;51.508;18.118;2022-11-24T00:39:57;49.33;;;22.92;;
23310;SDS011;11828;51.508;18.118;2022-11-24T00:42:23;56.22;;;24.50;;
23310;SDS011;11828;51.508;18.118;2022-11-24T00:44:50;53.28;;;24.23;;
23310;SDS011;11828;51.508;18.118;2022-11-24T00:47:16;50.08;;;24.27;;
23310;SDS011;11828;51.508;18.118;2022-11-24T00:49:42;54.50;;;24.30;;
23310;SDS011;11828;51.508;18.118;2022-11-24T00:52:08;53.10;;;23.75;;
23310;SDS011;11828;51.508;18.118;2022-11-24T00:54:34;55.35;;;24.55;;
23310;SDS011;11828;51.508;18.118;2022-11-24T00:57:00;56.05;;;25.48;;
23310;SDS011;11828;51.508;18.118;2022-11-24T00:59:26;51.00;;;23.77;;
23310;SDS011;11828;51.508;18.118;2022-11-24T01:01:52;56.75;;;24.67;;
23310;SDS011;11828;51.508;18.118;2022-11-24T01:04:18;52.63;;;24.10;;
23310;SDS011;11828;51.508;18.118;2022-11-24T01:06:44;59.40;;;24.35;;
23310;SDS011;11828;51.508;18.118;2022-11-24T01:09:10;57.92;;;24.35;;
23310;SDS011;11828;51.508;18.118;2022-11-24T01:11:36;55.38;;;24.95;;
23310;SDS011;11828;51.508;18.118;2022-11-24T01:14:21;57.50;;;25.35;;
23310;SDS011;11828;51.508;18.118;2022-11-24T01:16:49;55.38;;;24.73;;
23310;SDS011;11828;51.508;18.118;2022-11-24T01:19:15;55.65;;;24.85;;
23310;SDS011;11828;51.508;18.118;2022-11-24T01:21:41;59.05;;;24.58;;
23310;SDS011;11828;51.508;18.118;2022-11-24T01:24:08;56.25;;;25.10;;
23310;SDS011;11828;51.508;18.118;2022-11-24T01:26:35;56.85;;;25.38;;
23310;SDS011;11828;51.508;18.118;2022-11-24T01:29:01;55.42;;;25.00;;
23310;SDS011;11828;51.508;18.118;2022-11-24T01:31:27;56.83;;;24.98;;
23310;SDS011;11828;51.508;18.118;2022-11-24T01:33:53;61.85;;;26.88;;
23310;SDS011;11828;51.508;18.118;2022-11-24T01:36:19;61.38;;;27.17;;
23310;SDS011;11828;51.508;18.118;2022-11-24T01:38:46;59.38;;;25.95;;
23310;SDS011;11828;51.508;18.118;2022-11-24T01:41:13;62.22;;;26.85;;
23310;SDS011;11828;51.508;18.118;2022-11-24T01:43:45;56.05;;;26.50;;
23310;SDS011;11828;51.508;18.118;2022-11-24T01:51:38;70.22;;;28.98;;
23310;SDS011;11828;51.508;18.118;2022-11-24T01:55:14;67.32;;;28.88;;
23310;SDS011;11828;51.508;18.118;2022-11-24T01:57:37;67.72;;;29.10;;
23310;SDS011;11828;51.508;18.118;2022-11-24T02:00:15;159.40;;;75.45;;
23310;SDS011;11828;51.508;18.118;2022-11-24T02:02:43;195.70;;;89.90;;
23310;SDS011;11828;51.508;18.118;2022-11-24T02:05:16;257.17;;;101.18;;
23310;SDS011;11828;51.508;18.118;2022-11-24T02:07:48;253.95;;;102.10;;
23310;SDS011;11828;51.508;18.118;2022-11-24T02:10:16;258.17;;;100.60;;
23310;SDS011;11828;51.508;18.118;2022-11-24T02:12:43;271.27;;;100.95;;
23310;SDS011;11828;51.508;18.118;2022-11-24T02:15:13;225.45;;;99.90;;
23310;SDS011;11828;51.508;18.118;2022-11-24T02:17:40;266.08;;;102.53;;
23310;SDS011;11828;51.508;18.118;2022-11-24T02:20:06;265.50;;;100.50;;
23310;SDS011;11828;51.508;18.118;2022-11-24T02:22:43;267.33;;;105.45;;
23310;SDS011;11828;51.508;18.118;2022-11-24T02:28:30;261.08;;;102.05;;
23310;SDS011;11828;51.508;18.118;2022-11-24T02:30:57;250.23;;;100.93;;
23310;SDS011;11828;51.508;18.118;2022-11-24T02:33:24;244.10;;;101.82;;
23310;SDS011;11828;51.508;18.118;2022-11-24T02:35:51;238.50;;;99.10;;
23310;SDS011;11828;51.508;18.118;2022-11-24T02:38:17;233.05;;;96.53;;
23310;SDS011;11828;51.508;18.118;2022-11-24T02:40:52;234.10;;;99.07;;
23310;SDS011;11828;51.508;18.118;2022-11-24T02:43:18;233.57;;;101.97;;
23310;SDS011;11828;51.508;18.118;2022-11-24T02:45:46;232.00;;;98.78;;
23310;SDS011;11828;51.508;18.118;2022-11-24T02:48:14;226.88;;;98.35;;
23310;SDS011;11828;51.508;18.118;2022-11-24T02:50:40;219.68;;;94.90;;
23310;SDS011;11828;51.508;18.118;2022-11-24T02:53:06;221.13;;;94.85;;
23310;SDS011;11828;51.508;18.118;2022-11-24T02:55:32;218.20;;;97.05;;
23310;SDS011;11828;51.508;18.118;2022-11-24T02:57:58;231.02;;;97.80;;
23310;SDS011;11828;51.508;18.118;2022-11-24T03:00:25;228.60;;;97.65;;
23310;SDS011;11828;51.508;18.118;2022-11-24T03:02:50;233.88;;;98.53;;
23310;SDS011;11828;51.508;18.118;2022-11-24T03:05:17;248.27;;;105.53;;
23310;SDS011;11828;51.508;18.118;2022-11-24T03:07:43;238.23;;;96.15;;
23310;SDS011;11828;51.508;18.118;2022-11-24T03:10:09;227.43;;;95.60;;
23310;SDS011;11828;51.508;18.118;2022-11-24T03:12:35;225.65;;;97.80;;
23310;SDS011;11828;51.508;18.118;2022-11-24T03:15:01;246.52;;;99.72;;
23310;SDS011;11828;51.508;18.118;2022-11-24T03:17:28;273.35;;;106.03;;
23310;SDS011;11828;51.508;18.118;2022-11-24T03:19:54;206.90;;;96.63;;
23310;SDS011;11828;51.508;18.118;2022-11-24T03:22:20;279.08;;;104.20;;
23310;SDS011;11828;51.508;18.118;2022-11-24T03:24:46;249.75;;;103.07;;
23310;SDS011;11828;51.508;18.118;2022-11-24T03:27:12;250.95;;;101.22;;
23310;SDS011;11828;51.508;18.118;2022-11-24T03:29:38;261.90;;;105.10;;
23310;SDS011;11828;51.508;18.118;2022-11-24T03:32:04;242.65;;;100.93;;
23310;SDS011;11828;51.508;18.118;2022-11-24T03:34:30;251.10;;;101.50;;
23310;SDS011;11828;51.508;18.118;2022-11-24T03:36:56;244.43;;;101.97;;
23310;SDS011;11828;51.508;18.118;2022-11-24T03:39:22;247.70;;;98.13;;
23310;SDS011;11828;51.508;18.118;2022-11-24T03:41:48;260.25;;;100.20;;
23310;SDS011;11828;51.508;18.118;2022-11-24T03:44:16;277.00;;;104.63;;
23310;SDS011;11828;51.508;18.118;2022-11-24T03:46:42;286.98;;;104.88;;
23310;SDS011;11828;51.508;18.118;2022-11-24T03:49:08;306.05;;;106.00;;
23310;SDS011;11828;51.508;18.118;2022-11-24T03:51:34;294.50;;;103.22;;
23310;SDS011;11828;51.508;18.118;2022-11-24T03:54:00;286.05;;;100.10;;
23310;SDS011;11828;51.508;18.118;2022-11-24T03:56:27;293.00;;;101.57;;
23310;SDS011;11828;51.508;18.118;2022-11-24T03:58:53;304.50;;;102.28;;
23310;SDS011;11828;51.508;18.118;2022-11-24T04:01:19;286.15;;;98.70;;
23310;SDS011;11828;51.508;18.118;2022-11-24T04:03:45;295.23;;;102.18;;
23310;SDS011;11828;51.508;18.118;2022-11-24T04:06:11;315.73;;;105.03;;
23310;SDS011;11828;51.508;18.118;2022-11-24T04:08:37;293.80;;;99.25;;
23310;SDS011;11828;51.508;18.118;2022-11-24T04:11:03;295.48;;;98.55;;
23310;SDS011;11828;51.508;18.118;2022-11-24T04:13:29;305.23;;;101.80;;
23310;SDS011;11828;51.508;18.118;2022-11-24T04:15:55;301.55;;;100.85;;
23310;SDS011;11828;51.508;18.118;2022-11-24T04:18:21;289.20;;;101.18;;
23310;SDS011;11828;51.508;18.118;2022-11-24T04:20:51;300.33;;;101.10;;
23310;SDS011;11828;51.508;18.118;2022-11-24T04:23:17;287.70;;;100.28;;
23310;SDS011;11828;51.508;18.118;2022-11-24T04:25:43;290.27;;;102.32;;
23310;SDS011;11828;51.508;18.118;2022-11-24T04:28:09;297.85;;;101.85;;
23310;SDS011;11828;51.508;18.118;2022-11-24T04:30:35;284.58;;;98.50;;
23310;SDS011;11828;51.508;18.118;2022-11-24T04:33:02;285.08;;;100.05;;
23310;SDS011;11828;51.508;18.118;2022-11-24T04:35:28;289.23;;;101.75;;
23310;SDS011;11828;51.508;18.118;2022-11-24T04:37:54;284.20;;;99.32;;
23310;SDS011;11828;51.508;18.118;2022-11-24T04:40:20;288.50;;;100.18;;
23310;SDS011;11828;51.508;18.118;2022-11-24T04:42:53;287.25;;;102.63;;
23310;SDS011;11828;51.508;18.118;2022-11-24T04:45:20;294.67;;;102.50;;
23310;SDS011;11828;51.508;18.118;2022-11-24T04:47:47;314.50;;;106.80;;
23310;SDS011;11828;51.508;18.118;2022-11-24T04:50:13;299.08;;;103.43;;
23310;SDS011;11828;51.508;18.118;2022-11-24T04:52:39;290.80;;;101.80;;
23310;SDS011;11828;51.508;18.118;2022-11-24T04:55:06;281.50;;;96.45;;
23310;SDS011;11828;51.508;18.118;2022-11-24T04:57:32;280.13;;;98.53;;
23310;SDS011;11828;51.508;18.118;2022-11-24T04:59:58;278.23;;;99.97;;
23310;SDS011;11828;51.508;18.118;2022-11-24T05:02:24;289.60;;;106.30;;
23310;SDS011;11828;51.508;18.118;2022-11-24T05:04:50;284.92;;;100.18;;
23310;SDS011;11828;51.508;18.118;2022-11-24T05:07:17;274.77;;;97.18;;
23310;SDS011;11828;51.508;18.118;2022-11-24T05:09:43;283.92;;;98.85;;
23310;SDS011;11828;51.508;18.118;2022-11-24T05:12:29;281.92;;;100.03;;
23310;SDS011;11828;51.508;18.118;2022-11-24T05:15:04;278.58;;;96.97;;
23310;SDS011;11828;51.508;18.118;2022-11-24T05:17:32;283.42;;;98.72;;
23310;SDS011;11828;51.508;18.118;2022-11-24T05:20:01;275.02;;;98.18;;
23310;SDS011;11828;51.508;18.118;2022-11-24T05:22:28;300.85;;;101.63;;
23310;SDS011;11828;51.508;18.118;2022-11-24T05:24:55;277.30;;;98.30;;
23310;SDS011;11828;51.508;18.118;2022-11-24T05:27:22;277.25;;;97.40;;
23310;SDS011;11828;51.508;18.118;2022-11-24T05:29:48;275.85;;;96.10;;
23310;SDS011;11828;51.508;18.118;2022-11-24T05:32:14;283.33;;;97.40;;
23310;SDS011;11828;51.508;18.118;2022-11-24T05:34:40;277.23;;;96.72;;
23310;SDS011;11828;51.508;18.118;2022-11-24T05:37:06;277.67;;;98.00;;
23310;SDS011;11828;51.508;18.118;2022-11-24T05:39:34;282.88;;;100.05;;
23310;SDS011;11828;51.508;18.118;2022-11-24T05:42:01;279.73;;;97.38;;
23310;SDS011;11828;51.508;18.118;2022-11-24T05:44:49;281.58;;;98.60;;
23310;SDS011;11828;51.508;18.118;2022-11-24T05:47:15;287.80;;;98.30;;
23310;SDS011;11828;51.508;18.118;2022-11-24T05:49:41;285.95;;;101.47;;
23310;SDS011;11828;51.508;18.118;2022-11-24T05:52:08;290.98;;;100.50;;
23310;SDS011;11828;51.508;18.118;2022-11-24T05:54:34;281.92;;;99.97;;
23310;SDS011;11828;51.508;18.118;2022-11-24T05:57:00;278.45;;;100.47;;
23310;SDS011;11828;51.508;18.118;2022-11-24T05:59:27;287.08;;;101.40;;
23310;SDS011;11828;51.508;18.118;2022-11-24T06:01:53;289.73;;;102.80;;
23310;SDS011;11828;51.508;18.118;2022-11-24T06:04:19;277.98;;;99.03;;
23310;SDS011;11828;51.508;18.118;2022-11-24T06:06:45;292.02;;;103.38;;
23310;SDS011;11828;51.508;18.118;2022-11-24T06:09:12;289.80;;;101.20;;
23310;SDS011;11828;51.508;18.118;2022-11-24T06:11:38;292.77;;;99.85;;
23310;SDS011;11828;51.508;18.118;2022-11-24T06:14:04;284.92;;;100.63;;
23310;SDS011;11828;51.508;18.118;2022-11-24T06:16:30;271.45;;;95.38;;
23310;SDS011;11828;51.508;18.118;2022-11-24T06:18:56;291.17;;;102.10;;
23310;SDS011;11828;51.508;18.118;2022-11-24T06:21:22;289.40;;;99.78;;
23310;SDS011;11828;51.508;18.118;2022-11-24T06:23:48;281.13;;;98.82;;
23310;SDS011;11828;51.508;18.118;2022-11-24T06:26:14;273.80;;;98.88;;
23310;SDS011;11828;51.508;18.118;2022-11-24T06:28:42;277.13;;;98.85;;
23310;SDS011;11828;51.508;18.118;2022-11-24T06:31:08;284.65;;;99.55;;
23310;SDS011;11828;51.508;18.118;2022-11-24T06:33:35;269.58;;;95.85;;
23310;SDS011;11828;51.508;18.118;2022-11-24T06:36:06;274.55;;;96.20;;
23310;SDS011;11828;51.508;18.118;2022-11-24T06:38:35;262.48;;;96.25;;
23310;SDS011;11828;51.508;18.118;2022-11-24T06:41:02;280.27;;;98.05;;
23310;SDS011;11828;51.508;18.118;2022-11-24T06:43:31;298.83;;;102.57;;
23310;SDS011;11828;51.508;18.118;2022-11-24T06:46:00;314.55;;;104.80;;
23310;SDS011;11828;51.508;18.118;2022-11-24T06:48:26;278.27;;;99.60;;
23310;SDS011;11828;51.508;18.118;2022-11-24T06:50:53;293.60;;;101.45;;
23310;SDS011;11828;51.508;18.118;2022-11-24T06:53:23;282.73;;;97.38;;
23310;SDS011;11828;51.508;18.118;2022-11-24T06:55:49;291.58;;;101.53;;
23310;SDS011;11828;51.508;18.118;2022-11-24T06:58:16;288.52;;;100.15;;
23310;SDS011;11828;51.508;18.118;2022-11-24T07:00:42;278.25;;;97.90;;
23310;SDS011;11828;51.508;18.118;2022-11-24T07:03:14;292.23;;;98.13;;
23310;SDS011;11828;51.508;18.118;2022-11-24T07:05:42;290.67;;;100.13;;
23310;SDS011;11828;51.508;18.118;2022-11-24T07:08:08;294.75;;;100.68;;
23310;SDS011;11828;51.508;18.118;2022-11-24T07:10:34;279.15;;;98.35;;
23310;SDS011;11828;51.508;18.118;2022-11-24T07:13:00;306.08;;;104.75;;
23310;SDS011;11828;51.508;18.118;2022-11-24T07:15:28;310.77;;;104.50;;
23310;SDS011;11828;51.508;18.118;2022-11-24T07:17:55;296.15;;;102.53;;
23310;SDS011;11828;51.508;18.118;2022-11-24T07:20:21;293.15;;;102.88;;
23310;SDS011;11828;51.508;18.118;2022-11-24T07:22:47;292.38;;;104.20;;
23310;SDS011;11828;51.508;18.118;2022-11-24T07:25:13;297.50;;;103.97;;
23310;SDS011;11828;51.508;18.118;2022-11-24T07:27:39;302.25;;;103.32;;
23310;SDS011;11828;51.508;18.118;2022-11-24T07:30:06;317.58;;;105.00;;
23310;SDS011;11828;51.508;18.118;2022-11-24T07:32:33;297.55;;;101.93;;
23310;SDS011;11828;51.508;18.118;2022-11-24T07:34:59;302.35;;;103.85;;
23310;SDS011;11828;51.508;18.118;2022-11-24T07:37:25;300.40;;;103.28;;
23310;SDS011;11828;51.508;18.118;2022-11-24T07:39:51;302.73;;;100.65;;
23310;SDS011;11828;51.508;18.118;2022-11-24T07:42:17;310.30;;;104.32;;
23310;SDS011;11828;51.508;18.118;2022-11-24T07:44:43;297.10;;;101.88;;
23310;SDS011;11828;51.508;18.118;2022-11-24T07:47:09;305.27;;;102.35;;
23310;SDS011;11828;51.508;18.118;2022-11-24T07:49:35;301.67;;;102.43;;
23310;SDS011;11828;51.508;18.118;2022-11-24T07:52:01;303.75;;;104.25;;
23310;SDS011;11828;51.508;18.118;2022-11-24T07:54:28;301.10;;;102.68;;
23310;SDS011;11828;51.508;18.118;2022-11-24T07:56:55;310.63;;;104.72;;
23310;SDS011;11828;51.508;18.118;2022-11-24T07:59:21;307.08;;;100.90;;
23310;SDS011;11828;51.508;18.118;2022-11-24T08:01:47;288.00;;;100.93;;
23310;SDS011;11828;51.508;18.118;2022-11-24T08:04:13;295.25;;;99.72;;
23310;SDS011;11828;51.508;18.118;2022-11-24T08:06:39;274.52;;;96.47;;
23310;SDS011;11828;51.508;18.118;2022-11-24T08:09:05;283.38;;;98.13;;
23310;SDS011;11828;51.508;18.118;2022-11-24T08:11:32;293.85;;;100.00;;
23310;SDS011;11828;51.508;18.118;2022-11-24T08:13:58;274.08;;;96.20;;
23310;SDS011;11828;51.508;18.118;2022-11-24T08:16:24;275.45;;;96.53;;
23310;SDS011;11828;51.508;18.118;2022-11-24T08:18:51;270.30;;;96.47;;
23310;SDS011;11828;51.508;18.118;2022-11-24T08:21:19;279.88;;;98.38;;
23310;SDS011;11828;51.508;18.118;2022-11-24T08:23:47;290.58;;;100.75;;
23310;SDS011;11828;51.508;18.118;2022-11-24T08:26:15;308.67;;;107.70;;
23310;SDS011;11828;51.508;18.118;2022-11-24T08:28:46;289.02;;;98.70;;
23310;SDS011;11828;51.508;18.118;2022-11-24T08:31:14;282.70;;;100.72;;
23310;SDS011;11828;51.508;18.118;2022-11-24T08:33:42;285.15;;;101.15;;
23310;SDS011;11828;51.508;18.118;2022-11-24T08:36:10;367.85;;;140.95;;
23310;SDS011;11828;51.508;18.118;2022-11-24T08:38:42;790.38;;;388.00;;
23310;SDS011;11828;51.508;18.118;2022-11-24T08:41:10;519.70;;;213.70;;
23310;SDS011;11828;51.508;18.118;2022-11-24T08:43:41;662.00;;;323.83;;
23310;SDS011;11828;51.508;18.118;2022-11-24T08:46:08;563.90;;;251.20;;
23310;SDS011;11828;51.508;18.118;2022-11-24T08:48:52;407.60;;;152.05;;
23310;SDS011;11828;51.508;18.118;2022-11-24T08:51:20;324.65;;;114.93;;
23310;SDS011;11828;51.508;18.118;2022-11-24T08:53:52;308.38;;;106.85;;
23310;SDS011;11828;51.508;18.118;2022-11-24T08:56:24;395.88;;;151.35;;
23310;SDS011;11828;51.508;18.118;2022-11-24T08:58:52;391.23;;;154.45;;
23310;SDS011;11828;51.508;18.118;2022-11-24T09:01:19;378.45;;;144.35;;
23310;SDS011;11828;51.508;18.118;2022-11-24T09:03:46;388.15;;;140.55;;
23310;SDS011;11828;51.508;18.118;2022-11-24T09:06:14;341.15;;;119.35;;
23310;SDS011;11828;51.508;18.118;2022-11-24T09:08:46;317.95;;;107.82;;
23310;SDS011;11828;51.508;18.118;2022-11-24T09:11:13;315.92;;;105.57;;
23310;SDS011;11828;51.508;18.118;2022-11-24T09:13:41;298.30;;;105.32;;
23310;SDS011;11828;51.508;18.118;2022-11-24T09:16:12;311.92;;;103.43;;
23310;SDS011;11828;51.508;18.118;2022-11-24T09:18:40;348.00;;;134.80;;
23310;SDS011;11828;51.508;18.118;2022-11-24T09:21:10;353.98;;;134.07;;
23310;SDS011;11828;51.508;18.118;2022-11-24T09:23:39;306.85;;;111.40;;
23310;SDS011;11828;51.508;18.118;2022-11-24T09:26:07;303.65;;;103.47;;
23310;SDS011;11828;51.508;18.118;2022-11-24T09:28:58;308.38;;;101.38;;
23310;SDS011;11828;51.508;18.118;2022-11-24T09:31:27;304.33;;;103.88;;
23310;SDS011;11828;51.508;18.118;2022-11-24T09:33:58;296.30;;;101.80;;
23310;SDS011;11828;51.508;18.118;2022-11-24T09:36:25;313.15;;;107.07;;
23310;SDS011;11828;51.508;18.118;2022-11-24T09:38:52;303.65;;;106.28;;
23310;SDS011;11828;51.508;18.118;2022-11-24T09:44:07;325.23;;;108.53;;
23310;SDS011;11828;51.508;18.118;2022-11-24T09:46:58;303.08;;;104.43;;
23310;SDS011;11828;51.508;18.118;2022-11-24T09:49:38;296.02;;;103.03;;
23310;SDS011;11828;51.508;18.118;2022-11-24T09:52:14;287.52;;;98.80;;
23310;SDS011;11828;51.508;18.118;2022-11-24T09:54:50;309.23;;;103.60;;
23310;SDS011;11828;51.508;18.118;2022-11-24T09:57:22;299.75;;;103.10;;
23310;SDS011;11828;51.508;18.118;2022-11-24T09:59:54;302.55;;;101.72;;
23310;SDS011;11828;51.508;18.118;2022-11-24T10:02:26;295.20;;;101.65;;
23310;SDS011;11828;51.508;18.118;2022-11-24T10:04:52;299.50;;;101.05;;
23310;SDS011;11828;51.508;18.118;2022-11-24T10:07:21;299.23;;;107.68;;
23310;SDS011;11828;51.508;18.118;2022-11-24T10:10:11;308.60;;;108.68;;
23310;SDS011;11828;51.508;18.118;2022-11-24T10:15:31;278.17;;;99.32;;
23310;SDS011;11828;51.508;18.118;2022-11-24T10:18:48;286.35;;;100.97;;
23310;SDS011;11828;51.508;18.118;2022-11-24T10:27:00;278.08;;;98.45;;
23310;SDS011;11828;51.508;18.118;2022-11-24T10:29:40;290.50;;;103.82;;
23310;SDS011;11828;51.508;18.118;2022-11-24T10:34:47;278.70;;;99.97;;
23310;SDS011;11828;51.508;18.118;2022-11-24T10:42:55;286.33;;;103.47;;
23310;SDS011;11828;51.508;18.118;2022-11-24T10:45:21;294.65;;;103.85;;
23310;SDS011;11828;51.508;18.118;2022-11-24T10:47:47;287.52;;;102.15;;
23310;SDS011;11828;51.508;18.118;2022-11-24T10:55:55;288.48;;;103.43;;
23310;SDS011;11828;51.508;18.118;2022-11-24T10:58:34;268.80;;;99.65;;
23310;SDS011;11828;51.508;18.118;2022-11-24T11:03:44;267.02;;;99.55;;
23310;SDS011;11828;51.508;18.118;2022-11-24T11:06:26;278.92;;;101.40;;
23310;SDS011;11828;51.508;18.118;2022-11-24T11:09:37;273.98;;;100.53;;
23310;SDS011;11828;51.508;18.118;2022-11-24T11:11:39;280.25;;;99.65;;
23310;SDS011;11828;51.508;18.118;2022-11-24T11:14:06;279.05;;;101.30;;
23310;SDS011;11828;51.508;18.118;2022-11-24T11:16:39;274.63;;;104.47;;
23310;SDS011;11828;51.508;18.118;2022-11-24T11:19:37;272.77;;;102.22;;
23310;SDS011;11828;51.508;18.118;2022-11-24T11:22:12;281.35;;;101.38;;
23310;SDS011;11828;51.508;18.118;2022-11-24T11:24:44;286.60;;;105.57;;
23310;SDS011;11828;51.508;18.118;2022-11-24T11:27:18;287.35;;;106.82;;
23310;SDS011;11828;51.508;18.118;2022-11-24T11:29:47;285.77;;;104.72;;
23310;SDS011;11828;51.508;18.118;2022-11-24T11:32:21;283.42;;;101.57;;
23310;SDS011;11828;51.508;18.118;2022-11-24T11:34:50;275.33;;;100.55;;
23310;SDS011;11828;51.508;18.118;2022-11-24T11:37:20;293.85;;;103.07;;
23310;SDS011;11828;51.508;18.118;2022-11-24T11:39:50;287.50;;;103.07;;
23310;SDS011;11828;51.508;18.118;2022-11-24T11:45:01;287.70;;;104.18;;
23310;SDS011;11828;51.508;18.118;2022-11-24T11:50:26;274.55;;;98.72;;
23310;SDS011;11828;51.508;18.118;2022-11-24T11:53:16;276.20;;;102.05;;
23310;SDS011;11828;51.508;18.118;2022-11-24T12:08:39;275.40;;;99.43;;
23310;SDS011;11828;51.508;18.118;2022-11-24T12:11:48;294.90;;;110.13;;
23310;SDS011;11828;51.508;18.118;2022-11-24T12:17:55;284.75;;;100.97;;
23310;SDS011;11828;51.508;18.118;2022-11-24T12:23:52;303.27;;;106.22;;
23310;SDS011;11828;51.508;18.118;2022-11-24T12:26:40;287.35;;;109.25;;
23310;SDS011;11828;51.508;18.118;2022-11-24T12:29:41;280.80;;;102.28;;
23310;SDS011;11828;51.508;18.118;2022-11-24T12:35:41;283.92;;;105.20;;
23310;SDS011;11828;51.508;18.118;2022-11-24T12:38:15;287.00;;;102.95;;
23310;SDS011;11828;51.508;18.118;2022-11-24T12:44:23;285.38;;;100.93;;
23310;SDS011;11828;51.508;18.118;2022-11-24T12:47:20;297.30;;;102.95;;
23310;SDS011;11828;51.508;18.118;2022-11-24T12:50:17;286.98;;;101.38;;
23310;SDS011;11828;51.508;18.118;2022-11-24T12:52:47;290.23;;;102.88;;
23310;SDS011;11828;51.508;18.118;2022-11-24T12:55:18;272.65;;;101.20;;
23310;SDS011;11828;51.508;18.118;2022-11-24T12:57:50;274.25;;;97.18;;
23310;SDS011;11828;51.508;18.118;2022-11-24T13:01:02;281.33;;;98.88;;
23310;SDS011;11828;51.508;18.118;2022-11-24T13:03:48;287.67;;;99.38;;
23310;SDS011;11828;51.508;18.118;2022-11-24T13:09:28;275.85;;;98.53;;
23310;SDS011;11828;51.508;18.118;2022-11-24T13:12:04;274.92;;;100.63;;
23310;SDS011;11828;51.508;18.118;2022-11-24T13:14:38;223.77;;;96.13;;
23310;SDS011;11828;51.508;18.118;2022-11-24T13:23:04;281.52;;;101.20;;
23310;SDS011;11828;51.508;18.118;2022-11-24T13:25:32;288.67;;;106.43;;
23310;SDS011;11828;51.508;18.118;2022-11-24T13:28:00;286.48;;;101.55;;
23310;SDS011;11828;51.508;18.118;2022-11-24T13:33:01;260.00;;;102.43;;
23310;SDS011;11828;51.508;18.118;2022-11-24T13:36:27;248.85;;;101.88;;
23310;SDS011;11828;51.508;18.118;2022-11-24T13:39:01;238.98;;;100.78;;
23310;SDS011;11828;51.508;18.118;2022-11-24T13:46:58;205.43;;;97.10;;
23310;SDS011;11828;51.508;18.118;2022-11-24T13:55:34;197.43;;;97.30;;
23310;SDS011;11828;51.508;18.118;2022-11-24T13:58:05;233.60;;;101.82;;
23310;SDS011;11828;51.508;18.118;2022-11-24T14:01:00;198.13;;;93.35;;
23310;SDS011;11828;51.508;18.118;2022-11-24T14:03:33;209.02;;;95.57;;
23310;SDS011;11828;51.508;18.118;2022-11-24T14:06:03;191.70;;;91.43;;
23310;SDS011;11828;51.508;18.118;2022-11-24T14:08:33;193.07;;;91.88;;
23310;SDS011;11828;51.508;18.118;2022-11-24T14:11:02;184.10;;;91.85;;
23310;SDS011;11828;51.508;18.118;2022-11-24T14:13:37;192.02;;;94.25;;
23310;SDS011;11828;51.508;18.118;2022-11-24T14:16:04;184.90;;;93.30;;
23310;SDS011;11828;51.508;18.118;2022-11-24T14:18:33;173.15;;;87.30;;
23310;SDS011;11828;51.508;18.118;2022-11-24T14:23:56;197.73;;;94.20;;
23310;SDS011;11828;51.508;18.118;2022-11-24T14:26:30;206.48;;;96.80;;
23310;SDS011;11828;51.508;18.118;2022-11-24T14:29:05;207.05;;;96.57;;
23310;SDS011;11828;51.508;18.118;2022-11-24T14:31:39;189.98;;;91.05;;
23310;SDS011;11828;51.508;18.118;2022-11-24T14:36:37;199.20;;;93.05;;
23310;SDS011;11828;51.508;18.118;2022-11-24T14:39:04;208.32;;;94.47;;
23310;SDS011;11828;51.508;18.118;2022-11-24T14:41:30;204.88;;;94.43;;
23310;SDS011;11828;51.508;18.118;2022-11-24T14:44:05;208.65;;;102.68;;
23310;SDS011;11828;51.508;18.118;2022-11-24T14:46:40;216.57;;;102.53;;
23310;SDS011;11828;51.508;18.118;2022-11-24T14:49:07;195.63;;;98.15;;
23310;SDS011;11828;51.508;18.118;2022-11-24T14:51:33;217.00;;;103.00;;
23310;SDS011;11828;51.508;18.118;2022-11-24T14:54:02;225.85;;;103.55;;
23310;SDS011;11828;51.508;18.118;2022-11-24T14:56:35;241.23;;;107.40;;
23310;SDS011;11828;51.508;18.118;2022-11-24T14:59:15;226.70;;;105.35;;
23310;SDS011;11828;51.508;18.118;2022-11-24T15:01:49;241.85;;;106.93;;
23310;SDS011;11828;51.508;18.118;2022-11-24T15:06:48;230.75;;;104.97;;
23310;SDS011;11828;51.508;18.118;2022-11-24T15:09:52;227.93;;;102.30;;
23310;SDS011;11828;51.508;18.118;2022-11-24T15:12:39;224.85;;;97.72;;
23310;SDS011;11828;51.508;18.118;2022-11-24T15:20:35;232.23;;;103.47;;
23310;SDS011;11828;51.508;18.118;2022-11-24T15:28:28;249.68;;;103.22;;
23310;SDS011;11828;51.508;18.118;2022-11-24T15:30:58;274.35;;;108.53;;
23310;SDS011;11828;51.508;18.118;2022-11-24T15:33:28;247.50;;;102.45;;
23310;SDS011;11828;51.508;18.118;2022-11-24T15:35:54;246.75;;;106.07;;
23310;SDS011;11828;51.508;18.118;2022-11-24T15:38:20;249.15;;;104.28;;
23310;SDS011;11828;51.508;18.118;2022-11-24T15:40:48;274.17;;;109.65;;
23310;SDS011;11828;51.508;18.118;2022-11-24T15:43:18;241.13;;;105.03;;
23310;SDS011;11828;51.508;18.118;2022-11-24T15:45:54;253.07;;;105.03;;
23310;SDS011;11828;51.508;18.118;2022-11-24T15:48:20;288.02;;;109.55;;
23310;SDS011;11828;51.508;18.118;2022-11-24T15:50:46;262.35;;;107.03;;
23310;SDS011;11828;51.508;18.118;2022-11-24T15:53:23;276.90;;;113.43;;
23310;SDS011;11828;51.508;18.118;2022-11-24T15:55:56;374.25;;;147.40;;
23310;SDS011;11828;51.508;18.118;2022-11-24T15:58:23;465.67;;;201.50;;